Time;durP1;ratioP1;P1;durP2;ratioP2;P2;SDS_P1;SDS_P2;PMS_P1;PMS_P2;Temp;Humidity;BMP_temperature;BMP_pressure;BME280_temperature;BME280_humidity;BME280_pressure;Samples;Min_cycle;Max_cycle;Signal;HPM_P1;HPM_P2
2023/05/04 07:23:13;;;;;;;11.13;7.72;;;;;;;-145.79;51.88;78208.25;5322174;27;20383;-68
2023/05/04 07:25:45;;;;;;;12.05;8.95;;;;;;;-145.79;51.81;78197.66;5321648;28;20047;-70
2023/05/04 07:28:16;;;;;;;8.48;6.75;;;;;;;-145.79;52.50;78159.50;5308039;28;20475;-69
2023/05/04 07:30:47;;;;;;;11.60;7.05;;;;;;;-145.79;50.89;78153.13;5321897;28;20107;-68
2023/05/04 07:33:19;;;;;;;9.68;8.00;;;;;;;-145.79;51.02;78144.66;5308335;28;20032;-68
2023/05/04 07:35:59;;;;;;;8.15;6.72;;;;;;;-145.79;50.56;78131.94;5308304;28;20081;-68
2023/05/04 07:38:30;;;;;;;9.05;6.15;;;;;;;-145.79;50.31;78114.97;5308865;28;20028;-68
2023/05/04 07:41:02;;;;;;;11.70;6.93;;;;;;;-145.79;50.59;78104.38;5309455;28;20032;-69
2023/05/04 07:43:33;;;;;;;12.52;6.38;;;;;;;-145.79;50.27;78095.91;5305427;28;20483;-70
2023/05/04 07:46:04;;;;;;;8.68;6.53;;;;;;;-145.79;50.07;78076.81;5322023;28;20027;-70
2023/05/04 07:48:36;;;;;;;17.08;7.35;;;;;;;-145.79;49.36;78064.09;5314162;28;20032;-70
2023/05/04 07:51:12;;;;;;;16.02;7.70;;;;;;;-145.79;49.23;78053.50;5321614;28;20024;-68
2023/05/04 07:53:44;;;;;;;7.53;6.45;;;;;;;-145.79;49.18;78036.53;5304233;28;20056;-69
2023/05/04 07:56:15;;;;;;;9.50;7.00;;;;;;;-145.79;48.83;78030.19;5307270;28;20052;-67
2023/05/04 07:58:46;;;;;;;7.30;6.05;;;;;;;-145.79;48.38;78021.69;5307751;28;20118;-68
2023/05/04 08:01:18;;;;;;;10.70;6.63;;;;;;;-145.79;47.99;78015.34;5299720;28;20024;-68
2023/05/04 08:03:49;;;;;;;10.48;7.20;;;;;;;-145.79;47.41;78006.84;5306977;28;20016;-68
2023/05/04 08:06:20;;;;;;;8.80;6.38;;;;;;;-145.79;47.26;77996.25;5309359;28;20024;-68
2023/05/04 08:08:52;;;;;;;8.15;5.20;;;;;;;-145.79;47.44;77975.06;5321541;28;20020;-68
2023/05/04 08:11:23;;;;;;;10.20;6.57;;;;;;;-145.79;46.78;77958.09;5320846;28;20085;-68
2023/05/04 08:13:54;;;;;;;11.60;6.75;;;;;;;-145.79;47.06;77941.13;5321043;28;20028;-68
2023/05/04 08:16:27;;;;;;;8.43;5.75;;;;;;;-145.79;46.39;77943.25;5306830;28;20024;-68
2023/05/04 08:19:01;;;;;;;7.22;6.22;;;;;;;-145.79;46.84;77941.13;5299492;28;20024;-68
2023/05/04 08:21:32;;;;;;;9.45;6.80;;;;;;;-145.79;46.31;77930.53;5299492;28;20345;-68
2023/05/04 08:24:04;;;;;;;8.27;6.13;;;;;;;-145.79;46.89;77915.69;5309936;28;20035;-68
2023/05/04 08:26:38;;;;;;;6.80;5.72;;;;;;;-145.79;47.27;77909.34;5297357;28;20023;-68
2023/05/04 08:29:09;;;;;;;10.35;6.63;;;;;;;-145.79;47.15;77898.75;5305565;28;20102;-69
2023/05/04 08:31:41;;;;;;;7.78;6.68;;;;;;;-145.79;47.12;77894.50;5298445;28;20052;-68
2023/05/04 08:34:12;;;;;;;7.70;6.65;;;;;;;-145.79;46.97;77881.78;5285515;28;20032;-68
2023/05/04 08:36:43;;;;;;;7.82;5.97;;;;;;;-145.79;46.80;77856.34;5283776;28;20025;-68
2023/05/04 08:39:17;;;;;;;8.77;6.35;;;;;;;-145.79;46.80;77847.84;5295844;28;20020;-68
2023/05/04 08:41:48;;;;;;;8.60;6.63;;;;;;;-145.79;47.00;77835.13;5306244;28;20020;-68
2023/05/04 08:44:20;;;;;;;9.68;6.90;;;;;;;-145.79;46.82;77822.41;5304544;28;20034;-68
2023/05/04 08:46:52;;;;;;;9.10;6.65;;;;;;;-145.79;46.60;77813.94;5306162;28;20024;-68
2023/05/04 08:49:25;;;;;;;10.93;6.63;;;;;;;-145.79;46.69;77788.50;5306066;28;20576;-68
2023/05/04 08:51:58;;;;;;;10.43;5.93;;;;;;;-145.79;46.22;77775.78;5305660;28;20119;-69
2023/05/04 08:54:29;;;;;;;8.65;6.60;;;;;;;-145.79;46.02;77741.88;5305943;28;20024;-68
2023/05/04 08:57:03;;;;;;;9.27;5.97;;;;;;;-145.79;45.72;77729.16;5305114;28;20016;-68
2023/05/04 08:59:36;;;;;;;7.82;6.45;;;;;;;-145.79;45.13;77716.44;5304984;28;20058;-68
2023/05/04 09:02:10;;;;;;;8.85;6.05;;;;;;;-145.79;45.64;77699.47;5291981;28;20491;-68
2023/05/04 09:04:42;;;;;;;9.23;7.05;;;;;;;-145.79;44.99;77693.13;5302291;28;20103;-68
2023/05/04 09:07:13;;;;;;;8.82;5.90;;;;;;;-145.79;44.93;77682.50;5303242;28;20026;-68
2023/05/04 09:09:46;;;;;;;9.68;6.15;;;;;;;-145.79;45.39;77676.16;5305635;28;20034;-68
2023/05/04 09:12:20;;;;;;;10.13;6.60;;;;;;;-145.79;44.70;77665.56;5303794;28;20024;-68
2023/05/04 09:14:51;;;;;;;7.80;5.80;;;;;;;-145.79;44.68;77661.31;5299878;28;20078;-67
2023/05/04 09:17:26;;;;;;;7.32;6.10;;;;;;;-145.79;44.95;77644.34;5287846;28;20041;-67
2023/05/04 09:19:59;;;;;;;7.07;6.38;;;;;;;-145.79;43.77;77635.88;5296714;28;20020;-66
2023/05/04 09:22:31;;;;;;;11.18;7.22;;;;;;;-145.79;43.95;77610.44;5283392;28;20154;-67
2023/05/04 09:25:10;;;;;;;10.57;6.47;;;;;;;-145.79;43.76;77601.97;5283955;28;20024;-66
2023/05/04 09:27:51;;;;;;;9.60;5.72;;;;;;;-145.79;43.04;77591.38;5282949;28;20050;-66
2023/05/04 09:30:23;;;;;;;8.23;6.13;;;;;;;-145.79;43.15;77580.75;5285041;28;20077;-66
2023/05/04 09:32:54;;;;;;;10.73;6.82;;;;;;;-145.79;43.42;77568.03;5305410;28;20111;-66
2023/05/04 09:35:28;;;;;;;6.55;5.90;;;;;;;-145.79;43.04;77563.81;5304398;28;20066;-66
2023/05/04 09:38:00;;;;;;;9.32;5.47;;;;;;;-145.79;43.24;77551.09;5305266;28;20020;-66
2023/05/04 09:40:39;;;;;;;11.38;5.88;;;;;;;-145.79;43.14;77534.13;5289159;28;20028;-67
2023/05/04 09:43:12;;;;;;;8.02;5.38;;;;;;;-145.79;42.42;77527.78;5299034;28;20386;-66
2023/05/04 09:45:45;;;;;;;9.48;5.95;;;;;;;-145.79;41.97;77521.41;5303929;28;20032;-65
2023/05/04 09:48:24;;;;;;;6.28;5.43;;;;;;;-145.79;42.23;77512.94;5295484;28;20032;-66
2023/05/04 09:50:57;;;;;;;7.43;5.82;;;;;;;-145.79;42.05;77495.97;5283641;28;20028;-67
2023/05/04 09:53:32;;;;;;;6.35;5.43;;;;;;;-145.79;42.36;77479.03;5287972;28;20027;-67
2023/05/04 09:56:11;;;;;;;6.43;5.82;;;;;;;-145.79;42.32;77476.91;5291770;28;20032;-67
2023/05/04 09:58:45;;;;;;;8.50;5.97;;;;;;;-145.79;41.87;77451.47;5293480;28;20016;-66
2023/05/04 10:01:17;;;;;;;7.07;5.88;;;;;;;-145.79;41.38;77447.22;5304657;28;20032;-66
2023/05/04 10:03:50;;;;;;;10.18;6.38;;;;;;;-145.79;41.60;77423.91;5287520;28;20032;-65
2023/05/04 10:06:22;;;;;;;8.38;5.97;;;;;;;-145.79;41.20;77428.16;5301002;28;20031;-66
2023/05/04 10:08:55;;;;;;;7.63;5.80;;;;;;;-145.79;41.58;77411.19;5303769;28;20471;-67
2023/05/04 10:11:27;;;;;;;6.82;6.05;;;;;;;-145.79;41.33;77383.63;5304620;28;20028;-66
2023/05/04 10:13:59;;;;;;;7.72;5.63;;;;;;;-145.79;41.39;77368.78;5304939;28;20024;-66
2023/05/04 10:16:40;;;;;;;8.48;6.00;;;;;;;-145.79;41.21;77351.84;5282783;28;20044;-66
2023/05/04 10:19:41;;;;;;;10.00;6.22;;;;;;;-145.79;40.77;77343.38;5283436;28;20048;-68
2023/05/04 10:22:13;;;;;;;9.30;6.30;;;;;;;-145.79;40.39;77322.16;5286998;28;20136;-67
2023/05/04 10:25:00;;;;;;;9.90;6.80;;;;;;;-145.79;40.54;77315.81;5296077;28;20077;-69
2023/05/04 10:27:55;;;;;;;8.25;6.72;;;;;;;-145.79;40.28;77296.72;5299628;28;20020;-69
2023/05/04 10:30:27;;;;;;;7.65;5.60;;;;;;;-145.79;40.22;77279.78;5286493;28;20495;-67
2023/05/04 10:39:54;;;;;;;10.40;8.48;;;;;;;-145.79;39.84;77228.91;5296376;28;20027;-67
2023/05/04 10:42:28;;;;;;;7.63;6.30;;;;;;;-145.79;39.32;77190.75;5303647;28;20028;-67
2023/05/04 10:45:00;;;;;;;10.30;6.47;;;;;;;-145.79;39.42;77182.28;5303287;28;20035;-67
2023/05/04 10:47:33;;;;;;;6.90;6.20;;;;;;;-145.79;39.29;77175.91;5300456;28;20091;-67
2023/05/04 10:50:08;;;;;;;9.43;6.47;;;;;;;-145.79;38.85;77163.19;5282835;28;20025;-68
2023/05/04 10:52:50;;;;;;;7.25;6.07;;;;;;;-145.79;38.53;77152.59;5281717;28;20039;-67
2023/05/04 10:55:22;;;;;;;7.68;5.95;;;;;;;-145.79;38.66;77142.00;5282970;28;20025;-70
2023/05/04 10:57:55;;;;;;;7.95;5.82;;;;;;;-145.79;38.60;77116.56;5282604;28;20103;-70
2023/05/04 11:00:41;;;;;;;10.40;5.55;;;;;;;-145.79;38.05;77103.84;5282878;28;20028;-68
2023/05/04 11:03:12;;;;;;;6.93;6.15;;;;;;;-145.79;38.33;77097.50;5282593;28;20028;-68
2023/05/04 11:05:46;;;;;;;6.45;5.43;;;;;;;-145.79;38.17;77089.00;5281988;28;20471;-69
2023/05/04 11:08:22;;;;;;;6.60;4.85;;;;;;;-145.79;38.13;77050.88;5282717;28;20029;-69
2023/05/04 11:11:05;;;;;;;7.38;6.13;;;;;;;-145.79;38.17;77055.09;5282394;28;20096;-69
2023/05/04 11:13:44;;;;;;;5.53;4.90;;;;;;;-145.79;37.44;77033.91;5282338;28;20028;-69
2023/05/04 11:16:23;;;;;;;12.20;6.38;;;;;;;-145.79;37.16;77027.56;5297227;28;20028;-69
2023/05/04 11:19:05;;;;;;;7.22;5.75;;;;;;;-145.79;37.70;77033.91;5303503;28;20017;-69
2023/05/04 11:21:37;;;;;;;6.97;5.20;;;;;;;-145.79;37.83;77008.47;5303279;28;20060;-69
2023/05/04 11:24:08;;;;;;;6.55;5.10;;;;;;;-145.79;36.85;76989.41;5303337;28;20024;-69
2023/05/04 11:26:51;;;;;;;8.27;4.65;;;;;;;-145.79;36.94;76974.56;5302788;28;20459;-69
2023/05/04 11:29:22;;;;;;;17.58;5.57;;;;;;;-145.79;36.31;76966.09;5302280;28;20431;-69
2023/05/04 11:31:54;;;;;;;11.27;5.20;;;;;;;-145.79;36.66;76974.56;5298774;28;20103;-70
2023/05/04 11:34:26;;;;;;;7.18;5.95;;;;;;;-145.79;36.07;76959.72;5302931;28;20024;-71
2023/05/04 11:36:59;;;;;;;7.25;4.65;;;;;;;-145.79;36.46;76923.69;5303379;28;20024;-70
2023/05/04 11:39:34;;;;;;;6.70;4.85;;;;;;;-145.79;36.07;76919.47;5291954;28;20029;-71
2023/05/04 11:42:08;;;;;;;8.77;5.60;;;;;;;-145.79;36.48;76915.22;5283622;28;20455;-69
2023/05/04 11:44:40;;;;;;;6.00;5.40;;;;;;;-145.79;36.12;76904.63;5291625;28;20020;-67
2023/05/04 11:47:12;;;;;;;5.38;4.65;;;;;;;-145.79;35.24;76887.66;5293987;28;20035;-68
2023/05/04 11:49:44;;;;;;;7.15;4.40;;;;;;;-145.79;35.40;76881.31;5285870;28;20057;-68
2023/05/04 11:52:21;;;;;;;7.28;4.05;;;;;;;-145.79;34.72;76868.59;5286019;28;20020;-67
2023/05/04 11:54:57;;;;;;;4.97;4.13;;;;;;;-145.79;34.79;76845.28;5291575;28;20062;-67
2023/05/04 11:57:30;;;;;;;7.32;4.43;;;;;;;-145.79;34.42;76853.75;5280931;28;20044;-67
2023/05/04 12:00:32;;;;;;;7.38;4.50;;;;;;;-145.79;34.69;76830.44;5282100;28;20024;-68
2023/05/04 12:03:11;;;;;;;6.90;3.90;;;;;;;-145.79;34.11;76805.00;5290681;28;20127;-67
2023/05/04 12:05:50;;;;;;;6.72;3.83;;;;;;;-145.79;33.35;76796.53;5301921;28;20032;-67
2023/05/04 12:08:30;;;;;;;5.20;4.18;;;;;;;-145.79;34.01;76790.19;5301163;28;20028;-67
2023/05/04 12:11:25;;;;;;;6.07;4.57;;;;;;;-145.79;34.14;76783.81;5296449;28;20064;-66
2023/05/04 12:14:10;;;;;;;9.10;5.05;;;;;;;-145.79;33.77;76773.22;5300245;28;20148;-66
2023/05/04 12:16:52;;;;;;;8.73;4.13;;;;;;;-145.79;33.05;76756.28;5306131;28;20031;-66
2023/05/04 12:19:24;;;;;;;5.47;3.80;;;;;;;-145.79;33.92;76754.16;5306818;28;20040;-66
2023/05/04 12:21:57;;;;;;;5.80;3.80;;;;;;;-145.79;33.61;76737.19;5301532;28;20044;-67
2023/05/04 12:24:28;;;;;;;6.70;4.50;;;;;;;-145.79;33.06;76754.16;5290215;28;20463;-65
2023/05/04 12:27:03;;;;;;;5.93;3.72;;;;;;;-145.79;33.10;76749.91;5293070;28;20078;-66
2023/05/04 12:29:35;;;;;;;8.77;4.20;;;;;;;-145.79;33.04;76741.44;5285696;28;20108;-66
2023/05/04 12:32:06;;;;;;;4.97;4.18;;;;;;;-145.79;33.60;76747.78;5306843;28;20107;-67
2023/05/04 12:34:37;;;;;;;7.45;4.65;;;;;;;-145.79;33.51;76724.47;5313322;28;20028;-67
2023/05/04 12:37:10;;;;;;;5.70;4.05;;;;;;;-145.79;33.52;76713.88;5306120;28;20048;-68
2023/05/04 12:39:41;;;;;;;6.93;4.03;;;;;;;-145.79;33.57;76716.00;5285611;28;20430;-67
2023/05/04 12:42:13;;;;;;;6.72;4.90;;;;;;;-145.79;33.64;76684.22;5297791;28;20027;-65
2023/05/04 12:44:44;;;;;;;7.43;3.42;;;;;;;-145.79;33.63;76679.97;5284642;28;20104;-67
2023/05/04 12:47:16;;;;;;;6.25;3.92;;;;;;;-145.79;33.69;76658.78;5293579;28;20023;-67
2023/05/04 12:49:47;;;;;;;7.38;4.30;;;;;;;-145.79;33.57;76648.19;5298350;28;20368;-66
2023/05/04 12:52:21;;;;;;;7.30;3.72;;;;;;;-145.79;33.41;76631.22;5290745;28;20024;-67
2023/05/04 12:54:53;;;;;;;6.15;3.97;;;;;;;-145.79;33.35;76639.72;5301340;28;20043;-67
2023/05/04 12:57:24;;;;;;;5.38;4.88;;;;;;;-145.79;33.13;76635.47;5305647;28;20024;-67
2023/05/04 12:59:55;;;;;;;7.60;5.93;;;;;;;-145.79;33.49;76622.75;5300530;28;20032;-68
2023/05/04 13:02:27;;;;;;;7.82;4.82;;;;;;;-145.79;33.59;76612.16;5295681;28;20082;-68
2023/05/04 13:05:06;;;;;;;6.30;4.93;;;;;;;-145.79;33.91;76610.03;5284375;28;20036;-68
2023/05/04 13:07:37;;;;;;;9.90;4.93;;;;;;;-145.79;33.84;76584.59;5284836;28;20475;-67
2023/05/04 13:13:36;;;;;;;6.18;3.83;;;;;;;-145.79;32.56;76571.91;5298870;28;20615;-67
2023/05/04 13:16:08;;;;;;;5.93;3.50;;;;;;;-145.79;32.92;76571.91;5284947;28;20044;-65
2023/05/04 13:18:39;;;;;;;8.05;4.30;;;;;;;-145.79;33.06;76565.53;5291498;28;20428;-67
2023/05/04 13:21:11;;;;;;;8.65;3.80;;;;;;;-145.79;33.29;76540.09;5305475;28;20024;-66
2023/05/04 13:23:42;;;;;;;8.07;5.05;;;;;;;-145.79;33.46;76538.00;5303490;28;20028;-67
2023/05/04 13:26:14;;;;;;;10.18;4.05;;;;;;;-145.79;33.23;76521.03;5303068;28;20428;-66
2023/05/04 13:28:45;;;;;;;6.75;4.25;;;;;;;-145.79;33.20;76525.28;5300299;28;20142;-67
2023/05/04 13:31:18;;;;;;;7.97;3.58;;;;;;;-145.79;33.28;76506.19;5284669;28;20024;-66
2023/05/04 13:33:49;;;;;;;7.65;4.28;;;;;;;-145.79;32.99;76516.78;5287138;28;20036;-66
2023/05/04 13:43:19;;;;;;;6.40;4.07;;;;;;;-145.79;33.08;76472.28;5299120;28;20036;-67
2023/05/04 13:45:50;;;;;;;9.30;4.57;;;;;;;-145.79;32.83;76474.41;5283980;28;20037;-66
2023/05/04 13:48:24;;;;;;;6.47;4.03;;;;;;;-145.79;32.41;76451.09;5301428;28;20472;-66
2023/05/04 13:50:55;;;;;;;5.65;4.32;;;;;;;-145.79;32.37;76423.56;5305276;28;20058;-67
2023/05/04 13:53:26;;;;;;;4.30;3.65;;;;;;;-145.79;31.78;76419.31;5296466;28;20052;-67
2023/05/04 13:55:58;;;;;;;6.53;4.28;;;;;;;-145.79;31.63;76415.06;5283385;28;20039;-65
2023/05/04 13:58:29;;;;;;;6.15;3.55;;;;;;;-145.79;31.91;76415.06;5283740;28;20025;-65
2023/05/04 14:01:00;;;;;;;7.00;4.28;;;;;;;-145.79;31.58;76415.06;5289139;28;20028;-67
2023/05/04 14:13:55;;;;;;;6.07;4.43;;;;;;;-145.79;31.42;76351.50;5281317;28;20040;-67
2023/05/04 14:16:26;;;;;;;8.38;4.55;;;;;;;-145.79;31.22;76334.56;5282954;28;20028;-67
2023/05/04 14:18:58;;;;;;;12.43;3.33;;;;;;;-145.79;30.86;76330.31;5303428;28;20035;-65
2023/05/04 14:21:29;;;;;;;8.02;3.45;;;;;;;-145.79;30.71;76311.25;5294485;28;20051;-65
2023/05/04 14:24:01;;;;;;;4.43;3.20;;;;;;;-145.79;30.18;76326.06;5302434;28;20085;-65
2023/05/04 14:26:33;;;;;;;7.10;3.92;;;;;;;-145.79;30.37;76317.59;5303104;28;20107;-66
2023/05/04 14:29:04;;;;;;;8.82;3.40;;;;;;;-145.79;30.06;76326.06;5302295;28;20431;-66
2023/05/04 14:31:39;;;;;;;5.68;3.40;;;;;;;-145.79;29.98;76319.72;5291601;28;20029;-65
2023/05/04 14:34:11;;;;;;;6.32;4.00;;;;;;;-145.79;29.53;76317.59;5295976;28;20475;-67
2023/05/04 14:36:42;;;;;;;9.60;3.30;;;;;;;-145.79;30.08;76298.53;5298117;28;20078;-66
2023/05/04 14:39:17;;;;;;;10.23;3.17;;;;;;;-145.79;29.84;76313.34;5286000;28;20383;-66
2023/05/04 14:41:48;;;;;;;5.53;3.13;;;;;;;-145.79;30.08;76323.97;5295031;28;20026;-67
2023/05/04 14:44:21;;;;;;;7.53;3.65;;;;;;;-145.79;30.05;76334.56;5298706;28;20021;-65
2023/05/04 14:46:52;;;;;;;5.10;4.13;;;;;;;-145.79;30.04;76359.97;5281455;28;20032;-66
2023/05/04 14:49:24;;;;;;;6.10;4.53;;;;;;;-145.79;30.00;76366.34;5281450;28;20023;-65
2023/05/04 14:51:55;;;;;;;8.93;4.15;;;;;;;-145.79;30.30;76381.16;5282257;28;20421;-66
2023/05/04 14:54:26;;;;;;;5.30;3.72;;;;;;;-145.79;30.59;76387.53;5291608;28;20047;-66
2023/05/04 15:03:55;;;;;;;9.07;4.28;;;;;;;-145.79;30.85;76364.22;5283098;28;20460;-66
2023/05/04 15:06:31;;;;;;;7.75;4.22;;;;;;;-145.79;30.85;76372.69;5295241;28;20031;-66
2023/05/04 15:09:02;;;;;;;6.85;3.40;;;;;;;-145.79;30.72;76368.47;5282650;28;20490;-66
2023/05/04 15:11:34;;;;;;;7.47;3.90;;;;;;;-145.79;30.66;76368.47;5291845;28;20020;-67
2023/05/04 15:14:05;;;;;;;5.47;3.72;;;;;;;-145.79;30.83;76368.47;5302397;28;20479;-67
2023/05/04 15:16:37;;;;;;;6.90;4.63;;;;;;;-145.79;30.48;76385.41;5289954;28;20115;-67
2023/05/04 15:19:08;;;;;;;4.35;3.47;;;;;;;-145.79;30.64;76402.38;5281917;28;20024;-68
2023/05/04 15:21:40;;;;;;;5.45;3.58;;;;;;;-145.79;30.60;76402.38;5282489;28;20052;-66
2023/05/04 15:24:11;;;;;;;4.18;3.45;;;;;;;-145.79;30.31;76396.00;5282799;28;20047;-67
2023/05/04 15:26:43;;;;;;;7.15;2.90;;;;;;;-145.79;30.23;76389.66;5281795;28;20029;-66
2023/05/04 15:29:17;;;;;;;6.82;3.38;;;;;;;-145.79;30.17;76398.13;5284044;28;20028;-67
2023/05/04 15:31:49;;;;;;;3.28;2.90;;;;;;;-145.79;30.42;76389.66;5289708;28;20126;-66
2023/05/04 15:34:20;;;;;;;7.90;3.55;;;;;;;-145.79;30.83;76376.94;5302378;28;20095;-67
2023/05/04 15:36:54;;;;;;;6.47;3.13;;;;;;;-145.79;30.91;76372.69;5303123;28;20024;-67
2023/05/04 15:39:25;;;;;;;6.03;3.17;;;;;;;-145.79;30.83;76376.94;5302825;28;20021;-67
2023/05/04 15:41:57;;;;;;;6.90;2.97;;;;;;;-145.79;30.52;76376.94;5298698;28;20072;-67
2023/05/04 15:44:28;;;;;;;4.63;2.90;;;;;;;-145.79;30.47;76381.16;5304607;28;20043;-68
2023/05/04 15:47:00;;;;;;;6.47;3.58;;;;;;;-145.79;30.96;76385.41;5285902;28;20032;-67
2023/05/04 15:49:31;;;;;;;6.97;3.65;;;;;;;-145.79;30.92;76398.13;5287389;28;20039;-71
2023/05/04 15:52:03;;;;;;;6.45;3.00;;;;;;;-145.79;30.65;76406.59;5297337;28;20025;-70
2023/05/04 15:54:34;;;;;;;7.43;3.45;;;;;;;-145.79;30.76;76417.19;5285553;28;20027;-71
2023/05/04 15:57:06;;;;;;;5.38;2.95;;;;;;;-145.79;30.69;76400.25;5285979;28;20020;-73
2023/05/04 15:59:38;;;;;;;6.15;3.10;;;;;;;-145.79;30.81;76408.72;5286664;28;20029;-72
2023/05/04 16:02:09;;;;;;;5.78;3.75;;;;;;;-145.79;31.09;76412.97;5293060;28;20043;-69
2023/05/04 16:04:41;;;;;;;8.13;4.18;;;;;;;-145.79;30.88;76402.38;5306706;28;20063;-69
2023/05/04 16:07:12;;;;;;;4.20;3.00;;;;;;;-145.79;31.04;76408.72;5307358;28;20474;-67
2023/05/04 16:09:46;;;;;;;4.85;3.47;;;;;;;-145.79;30.84;76406.59;5306465;28;20016;-68
2023/05/04 16:12:19;;;;;;;5.65;3.65;;;;;;;-145.79;30.84;76415.06;5307219;28;20043;-71
2023/05/04 16:14:50;;;;;;;8.00;3.60;;;;;;;-145.79;30.89;76398.13;5306959;28;20421;-72
2023/05/04 16:17:22;;;;;;;5.68;4.40;;;;;;;-145.79;31.19;76412.97;5307213;28;20024;-71
2023/05/04 16:19:53;;;;;;;8.85;3.95;;;;;;;-145.79;31.31;76419.31;5293036;28;20028;-70
2023/05/04 16:22:24;;;;;;;5.65;3.40;;;;;;;-145.79;31.19;76404.47;5284953;28;20415;-70
2023/05/04 16:24:56;;;;;;;7.00;3.70;;;;;;;-145.79;31.38;76402.38;5286380;28;20032;-70
2023/05/04 16:27:27;;;;;;;7.78;3.15;;;;;;;-145.79;31.28;76410.84;5286165;28;20016;-71
2023/05/04 16:29:58;;;;;;;6.93;2.90;;;;;;;-145.79;31.50;76406.59;5289692;28;20028;-70
2023/05/04 16:32:30;;;;;;;5.70;2.78;;;;;;;-145.79;31.22;76408.72;5306836;28;20115;-71
2023/05/04 16:35:01;;;;;;;6.30;2.90;;;;;;;-145.79;31.32;76406.59;5307102;28;20482;-70
2023/05/04 16:37:36;;;;;;;4.95;3.25;;;;;;;-145.79;31.47;76404.47;5305487;28;20024;-68
2023/05/04 16:40:17;;;;;;;7.07;3.10;;;;;;;-145.79;31.42;76393.88;5306657;28;20387;-69
2023/05/04 16:42:48;;;;;;;5.93;3.35;;;;;;;-145.79;31.11;76406.59;5305807;28;20417;-69
2023/05/04 16:45:20;;;;;;;3.95;3.42;;;;;;;-145.79;31.11;76385.41;5306562;28;20020;-69
2023/05/04 16:47:51;;;;;;;5.28;2.67;;;;;;;-145.79;31.16;76381.16;5306500;28;20015;-69
2023/05/04 16:50:22;;;;;;;4.35;3.20;;;;;;;-145.79;30.97;76389.66;5305920;28;20031;-69
2023/05/04 16:52:59;;;;;;;7.28;3.13;;;;;;;-145.79;30.96;76398.13;5304418;28;20479;-68
